Chuxiong, China
Current Conditions -  °F | °C
As of 6:00 AM on Sunday 21 Dec 2014 (Local Time) from ZPPP Reporting Station
Overcast Overcast  
Wind Chill: 24°   Ceiling: 3300
Heat Index: 36°   Visibility: 5mi
Dew Point: 32°   Wind: 22mph
Humidity: 87%   Direction: 50°NE
Pressure: 30.27"   Gusts: NA
Location:  25.02°N, 101.53°E
Report Text: ZPPP 202200Z 05010MPS 8000 SCT016 OVC033 02/M00 Q1025 NOSIG
Loading
Personal Weather Stations






























Interactive Weather Map New forecast layout! Learn more

10-Day Weather Forecast

Advertisements
Track Severe Weather on mobile